Time,TemperatureF,DewpointF,PressureIn,WindDirection,WindDirectionDegrees,WindSpeedMPH,WindSpeedGustMPH,Humidity,HourlyPrecipIn,Conditions,Clouds,dailyrainin,SoftwareType,DateUTC
2013-06-30 00:03:00,65.0,54.0,27.03,NE,42,5.0,6.0,67,0.00,,,-99.99,,2013-06-30 05:03:00,
2013-06-30 00:08:00,64.0,54.0,27.03,NNE,28,4.0,5.0,68,0.00,,,-99.99,,2013-06-30 05:08:00,
2013-06-30 00:23:00,65.0,54.0,27.04,NE,37,4.0,5.0,67,0.00,,,-99.99,,2013-06-30 05:23:00,
2013-06-30 00:33:00,65.0,54.0,27.04,NE,35,5.0,6.0,67,0.00,,,-99.99,,2013-06-30 05:33:00,
2013-06-30 00:38:00,64.0,54.0,27.04,NNE,30,6.0,6.0,68,0.00,,,-99.99,,2013-06-30 05:38:00,
2013-06-30 00:48:00,64.0,54.0,27.04,NNE,30,6.0,6.0,69,0.00,,,-99.99,,2013-06-30 05:48:00,
2013-06-30 00:53:00,64.0,54.0,27.04,NNE,27,5.0,5.0,69,0.00,,,-99.99,,2013-06-30 05:53:00,
2013-06-30 01:03:00,63.0,54.0,27.04,NNE,21,5.0,5.0,70,0.00,,,-99.99,,2013-06-30 06:03:00,
2013-06-30 01:08:00,64.0,54.0,27.04,NNE,31,5.0,5.0,70,0.00,,,-99.99,,2013-06-30 06:08:00,
2013-06-30 01:18:00,63.0,54.0,27.04,NNE,25,6.0,6.0,70,0.00,,,-99.99,,2013-06-30 06:18:00,
2013-06-30 01:23:00,63.0,54.0,27.04,NNE,23,6.0,6.0,71,0.00,,,-99.99,,2013-06-30 06:23:00,
2013-06-30 01:33:00,63.0,54.0,27.04,NNE,31,6.0,6.0,71,0.00,,,-99.99,,2013-06-30 06:33:00,
2013-06-30 01:38:00,63.0,54.0,27.04,NE,34,6.0,7.0,72,0.00,,,-99.99,,2013-06-30 06:38:00,
2013-06-30 01:48:00,62.0,54.0,27.04,NNE,23,7.0,8.0,73,0.00,,,-99.99,,2013-06-30 06:48:00,
2013-06-30 01:58:00,62.0,54.0,27.05,NNE,28,8.0,8.0,73,0.00,,,-99.99,,2013-06-30 06:58:00,
2013-06-30 02:03:00,61.0,52.0,27.05,NNE,21,8.0,8.0,74,0.00,,,-99.99,,2013-06-30 07:03:00,
2013-06-30 02:08:00,61.0,54.0,27.05,NNE,18,7.0,8.0,75,0.00,,,-99.99,,2013-06-30 07:08:00,
2013-06-30 02:23:00,60.0,52.0,27.05,NNE,28,6.0,7.0,76,0.00,,,-99.99,,2013-06-30 07:23:00,
2013-06-30 02:38:00,60.0,54.0,27.05,NE,45,9.0,9.0,78,0.00,,,-99.99,,2013-06-30 07:38:00,
2013-06-30 02:43:00,60.0,54.0,27.05,NE,34,7.0,7.0,78,0.00,,,-99.99,,2013-06-30 07:43:00,
2013-06-30 02:53:00,60.0,54.0,27.05,NNE,14,5.0,5.0,78,0.00,,,-99.99,,2013-06-30 07:53:00,
2013-06-30 02:58:00,59.0,52.0,27.05,North,3,4.0,5.0,78,0.00,,,-99.99,,2013-06-30 07:58:00,
2013-06-30 03:08:00,59.0,52.0,27.05,NNW,340,5.0,5.0,79,0.00,,,-99.99,,2013-06-30 08:08:00,
2013-06-30 03:13:00,58.0,52.0,27.05,NNW,338,5.0,5.0,80,0.00,,,-99.99,,2013-06-30 08:13:00,
2013-06-30 03:23:00,59.0,54.0,27.05,NNW,348,5.0,5.0,80,0.00,,,-99.99,,2013-06-30 08:23:00,
2013-06-30 03:28:00,59.0,54.0,27.05,NNW,348,5.0,6.0,80,0.00,,,-99.99,,2013-06-30 08:28:00,
2013-06-30 03:38:00,59.0,54.0,27.05,NNW,340,5.0,5.0,80,0.00,,,-99.99,,2013-06-30 08:38:00,
2013-06-30 03:43:00,59.0,54.0,27.05,NNW,341,5.0,5.0,80,0.00,,,-99.99,,2013-06-30 08:43:00,
2013-06-30 03:53:00,59.0,54.0,27.06,NNW,345,4.0,4.0,80,0.00,,,-99.99,,2013-06-30 08:53:00,
2013-06-30 03:58:00,59.0,54.0,27.06,North,355,4.0,4.0,80,0.00,,,-99.99,,2013-06-30 08:58:00,
2013-06-30 04:13:00,59.0,54.0,27.05,North,357,5.0,5.0,81,0.00,,,-99.99,,2013-06-30 09:13:00,
2013-06-30 04:18:00,59.0,54.0,27.05,NNW,347,5.0,5.0,81,0.00,,,-99.99,,2013-06-30 09:18:00,
2013-06-30 04:28:00,59.0,54.0,27.06,NW,312,5.0,6.0,81,0.00,,,-99.99,,2013-06-30 09:28:00,
2013-06-30 04:33:00,59.0,54.0,27.06,NW,314,5.0,5.0,82,0.00,,,-99.99,,2013-06-30 09:33:00,
2013-06-30 04:43:00,59.0,54.0,27.06,NNW,336,6.0,6.0,82,0.00,,,-99.99,,2013-06-30 09:43:00,
2013-06-30 04:48:00,59.0,54.0,27.06,NNW,337,6.0,7.0,83,0.00,,,-99.99,,2013-06-30 09:48:00,
2013-06-30 04:58:00,59.0,54.0,27.06,NNW,337,7.0,7.0,83,0.00,,,-99.99,,2013-06-30 09:58:00,
2013-06-30 05:03:00,59.0,54.0,27.06,NNW,348,6.0,6.0,83,0.00,,,-99.99,,2013-06-30 10:03:00,
2013-06-30 05:13:00,58.0,54.0,27.06,NNW,341,5.0,5.0,84,0.00,,,-99.99,,2013-06-30 10:13:00,
2013-06-30 05:18:00,58.0,54.0,27.06,NNW,344,5.0,6.0,85,0.00,,,-99.99,,2013-06-30 10:18:00,
2013-06-30 05:33:00,58.0,54.0,27.06,North,11,7.0,7.0,85,0.00,,,-99.99,,2013-06-30 10:33:00,
2013-06-30 05:38:00,58.0,54.0,27.06,NNE,14,7.0,7.0,85,0.00,,,-99.99,,2013-06-30 10:38:00,
2013-06-30 05:48:00,58.0,54.0,27.06,North,6,7.0,8.0,85,0.00,,,-99.99,,2013-06-30 10:48:00,
2013-06-30 06:03:00,57.0,54.0,27.07,NNW,334,6.0,6.0,86,0.00,,,-99.99,,2013-06-30 11:03:00,
2013-06-30 06:08:00,57.0,54.0,27.07,NNW,341,6.0,6.0,86,0.00,,,-99.99,,2013-06-30 11:08:00,
2013-06-30 06:18:00,56.0,52.0,27.07,NW,319,7.0,7.0,88,0.00,,,-99.99,,2013-06-30 11:18:00,
2013-06-30 06:23:00,56.0,52.0,27.07,NW,317,7.0,7.0,88,0.00,,,-99.99,,2013-06-30 11:23:00,
2013-06-30 06:38:00,57.0,54.0,27.08,NNW,329,7.0,7.0,89,0.00,,,-99.99,,2013-06-30 11:38:00,
2013-06-30 06:43:00,57.0,54.0,27.08,NNW,329,7.0,7.0,89,0.00,,,-99.99,,2013-06-30 11:43:00,
2013-06-30 06:48:00,58.0,55.0,27.08,NNW,333,6.0,6.0,89,0.00,,,-99.99,,2013-06-30 11:48:00,
2013-06-30 06:53:00,59.0,55.0,27.08,NNW,336,6.0,6.0,88,0.00,,,-99.99,,2013-06-30 11:53:00,
2013-06-30 06:58:00,59.0,55.0,27.08,NNW,344,5.0,6.0,87,0.00,,,-99.99,,2013-06-30 11:58:00,
2013-06-30 07:08:00,60.0,55.0,27.09,NW,326,5.0,6.0,86,0.00,,,-99.99,,2013-06-30 12:08:00,
2013-06-30 07:13:00,61.0,57.0,27.09,NNW,345,6.0,7.0,85,0.00,,,-99.99,,2013-06-30 12:13:00,
2013-06-30 07:23:00,61.0,55.0,27.09,North,354,6.0,6.0,83,0.00,,,-99.99,,2013-06-30 12:23:00,
2013-06-30 07:28:00,62.0,57.0,27.09,North,357,6.0,6.0,83,0.00,,,-99.99,,2013-06-30 12:28:00,
2013-06-30 07:33:00,62.0,57.0,27.09,NNE,16,6.0,7.0,82,0.00,,,-99.99,,2013-06-30 12:33:00,
2013-06-30 07:38:00,62.0,57.0,27.09,NNE,20,6.0,7.0,82,0.00,,,-99.99,,2013-06-30 12:38:00,
2013-06-30 07:43:00,63.0,57.0,27.09,NNE,14,6.0,7.0,81,0.00,,,-99.99,,2013-06-30 12:43:00,
2013-06-30 07:48:00,64.0,57.0,27.09,North,11,6.0,7.0,79,0.00,,,-99.99,,2013-06-30 12:48:00,
2013-06-30 07:53:00,65.0,57.0,27.09,NNE,14,5.0,6.0,78,0.00,,,-99.99,,2013-06-30 12:53:00,
2013-06-30 07:58:00,65.0,57.0,27.09,North,8,5.0,6.0,77,0.00,,,-99.99,,2013-06-30 12:58:00,
2013-06-30 08:08:00,66.0,59.0,27.09,NNW,344,4.0,5.0,76,0.00,,,-99.99,,2013-06-30 13:08:00,
2013-06-30 08:18:00,66.0,57.0,27.09,NNW,347,4.0,5.0,75,0.00,,,-99.99,,2013-06-30 13:18:00,
2013-06-30 08:23:00,66.0,57.0,27.10,WNW,290,6.0,7.0,75,0.00,,,-99.99,,2013-06-30 13:23:00,
2013-06-30 08:28:00,66.0,57.0,27.10,WNW,283,5.0,7.0,75,0.00,,,-99.99,,2013-06-30 13:28:00,
2013-06-30 08:33:00,66.0,59.0,27.10,NW,307,5.0,6.0,76,0.00,,,-99.99,,2013-06-30 13:33:00,
2013-06-30 08:38:00,67.0,59.0,27.10,North,360,5.0,6.0,75,0.00,,,-99.99,,2013-06-30 13:38:00,
2013-06-30 08:43:00,67.0,59.0,27.11,North,3,6.0,6.0,75,0.00,,,-99.99,,2013-06-30 13:43:00,
2013-06-30 08:48:00,67.0,59.0,27.11,North,6,5.0,6.0,75,0.00,,,-99.99,,2013-06-30 13:48:00,
2013-06-30 08:58:00,67.0,59.0,27.11,North,10,5.0,6.0,75,0.00,,,-99.99,,2013-06-30 13:58:00,
2013-06-30 09:08:00,68.0,59.0,27.11,North,357,1.0,4.0,74,0.00,,,-99.99,,2013-06-30 14:08:00,
2013-06-30 09:18:00,69.0,59.0,27.11,North,10,2.0,4.0,71,0.00,,,-99.99,,2013-06-30 14:18:00,
2013-06-30 09:23:00,70.0,59.0,27.11,North,11,4.0,4.0,70,0.00,,,-99.99,,2013-06-30 14:23:00,
2013-06-30 09:33:00,70.0,59.0,27.10,NNE,17,5.0,6.0,68,0.00,,,-99.99,,2013-06-30 14:33:00,
2013-06-30 09:38:00,71.0,59.0,27.10,East,79,4.0,5.0,67,0.00,,,-99.99,,2013-06-30 14:38:00,
2013-06-30 09:48:00,72.0,61.0,27.10,ENE,59,4.0,5.0,66,0.00,,,-99.99,,2013-06-30 14:48:00,
2013-06-30 09:53:00,72.0,61.0,27.10,NNE,23,5.0,6.0,66,0.00,,,-99.99,,2013-06-30 14:53:00,
2013-06-30 21:13:00,71.0,55.0,27.06,ENE,76,8.0,9.0,58,0.00,,,-99.99,,2013-07-01 02:13:00,
2013-06-30 21:23:00,70.0,55.0,27.06,ENE,76,8.0,9.0,60,0.00,,,-99.99,,2013-07-01 02:23:00,
2013-06-30 21:33:00,69.0,55.0,27.06,ENE,73,8.0,8.0,61,0.00,,,-99.99,,2013-07-01 02:33:00,
2013-06-30 21:38:00,69.0,55.0,27.06,ENE,73,8.0,9.0,62,0.00,,,-99.99,,2013-07-01 02:38:00,
2013-06-30 21:43:00,69.0,55.0,27.07,ENE,73,8.0,9.0,63,0.00,,,-99.99,,2013-07-01 02:43:00,
2013-06-30 21:48:00,68.0,55.0,27.07,ENE,75,8.0,9.0,63,0.00,,,-99.99,,2013-07-01 02:48:00,
2013-06-30 21:58:00,68.0,55.0,27.08,ENE,73,8.0,9.0,64,0.00,,,-99.99,,2013-07-01 02:58:00,
2013-06-30 22:08:00,68.0,55.0,27.09,ENE,72,8.0,9.0,66,0.00,,,-99.99,,2013-07-01 03:08:00,
2013-06-30 22:13:00,67.0,55.0,27.09,East,79,8.0,9.0,66,0.00,,,-99.99,,2013-07-01 03:13:00,
2013-06-30 22:18:00,67.0,55.0,27.09,East,83,7.0,9.0,67,0.00,,,-99.99,,2013-07-01 03:18:00,
2013-06-30 22:23:00,67.0,55.0,27.09,East,82,7.0,9.0,67,0.00,,,-99.99,,2013-07-01 03:23:00,
2013-06-30 22:28:00,67.0,55.0,27.09,East,82,7.0,8.0,68,0.00,,,-99.99,,2013-07-01 03:28:00,
2013-06-30 22:38:00,66.0,55.0,27.10,ENE,78,8.0,10.0,69,0.00,,,-99.99,,2013-07-01 03:38:00,
2013-06-30 22:48:00,66.0,57.0,27.09,East,86,9.0,10.0,71,0.00,,,-99.99,,2013-07-01 03:48:00,
2013-06-30 22:53:00,66.0,57.0,27.10,East,89,8.0,10.0,71,0.00,,,-99.99,,2013-07-01 03:53:00,
2013-06-30 23:03:00,65.0,55.0,27.10,ENE,76,8.0,9.0,72,0.00,,,-99.99,,2013-07-01 04:03:00,
2013-06-30 23:08:00,65.0,55.0,27.10,East,86,8.0,10.0,73,0.00,,,-99.99,,2013-07-01 04:08:00,
2013-06-30 23:18:00,65.0,57.0,27.10,East,93,9.0,11.0,74,0.00,,,-99.99,,2013-07-01 04:18:00,
2013-06-30 23:28:00,65.0,57.0,27.10,East,90,9.0,10.0,74,0.00,,,-99.99,,2013-07-01 04:28:00,
2013-06-30 23:33:00,65.0,57.0,27.10,ENE,78,8.0,10.0,75,0.00,,,-99.99,,2013-07-01 04:33:00,
2013-06-30 23:43:00,65.0,57.0,27.10,East,87,8.0,9.0,75,0.00,,,-99.99,,2013-07-01 04:43:00,
2013-06-30 23:48:00,64.0,55.0,27.11,East,89,8.0,9.0,76,0.00,,,-99.99,,2013-07-01 04:48:00,
2013-06-30 23:58:00,64.0,57.0,27.11,East,92,7.0,8.0,77,0.00,,,-99.99,,2013-07-01 04:58:00,